createdAt,value
2023-03-06T00:02:36.908Z,42.96
2023-03-06T00:06:38.199Z,42.44
2023-03-06T00:10:40.396Z,42.84
2023-03-06T00:14:41.756Z,42.85
2023-03-06T00:18:44.011Z,43.38
2023-03-06T00:22:45.909Z,43.67
2023-03-06T00:26:47.252Z,43.42
2023-03-06T00:30:48.562Z,43.41
2023-03-06T00:34:51.383Z,43.89
2023-03-06T00:38:52.713Z,43.96
2023-03-06T00:42:54.016Z,44.26
2023-03-06T00:46:55.339Z,43.83
2023-03-06T00:50:56.621Z,43.36
2023-03-06T00:54:57.895Z,43.71
2023-03-06T00:58:59.200Z,43.47
2023-03-06T01:03:00.547Z,43.79
2023-03-06T01:07:01.902Z,43.28
2023-03-06T01:11:03.358Z,43.35
2023-03-06T01:15:05.346Z,43.68
2023-03-06T01:19:06.742Z,43.71
2023-03-06T01:23:08.109Z,43.65
2023-03-06T01:27:09.530Z,43.39
2023-03-06T01:31:11.225Z,43.80
2023-03-06T01:35:12.978Z,43.24
2023-03-06T01:39:14.353Z,43.38
2023-03-06T01:43:25.666Z,43.03
2023-03-06T01:47:27.493Z,43.64
2023-03-06T01:51:34.625Z,43.20
2023-03-06T01:55:36.810Z,43.10
2023-03-06T01:59:42.211Z,43.14
2023-03-06T02:03:44.156Z,42.94
2023-03-06T02:07:46.709Z,42.95
2023-03-06T02:11:48.082Z,42.65
2023-03-06T02:15:49.480Z,43.25
2023-03-06T02:20:12.087Z,43.69
2023-03-06T02:24:40.703Z,43.63
2023-03-06T02:28:42.389Z,43.20
2023-03-06T02:32:43.743Z,43.30
2023-03-06T02:36:55.491Z,44.20
2023-03-06T02:40:58.062Z,44.76
2023-03-06T02:45:01.765Z,44.47
2023-03-06T02:49:03.094Z,44.69
2023-03-06T02:53:05.850Z,44.63
2023-03-06T02:57:07.188Z,43.88
2023-03-06T03:01:08.771Z,44.11
2023-03-06T03:05:10.148Z,44.65
2023-03-06T03:09:11.594Z,44.10
2023-03-06T03:13:13.174Z,44.57
2023-03-06T03:17:15.105Z,44.39
2023-03-06T03:21:17.195Z,44.13
2023-03-06T03:25:19.976Z,44.27
2023-03-06T03:29:21.301Z,44.72
2023-03-06T03:33:22.623Z,44.46
2023-03-06T03:37:24.032Z,44.48
2023-03-06T03:41:25.641Z,44.75
2023-03-06T03:45:27.148Z,44.46
2023-03-06T03:49:28.488Z,44.32
2023-03-06T03:53:29.790Z,44.85
2023-03-06T03:57:31.161Z,44.09
2023-03-06T04:01:32.705Z,43.97
2023-03-06T04:05:34.131Z,44.00
2023-03-06T04:09:35.549Z,44.36
2023-03-06T04:13:36.888Z,43.91
2023-03-06T04:17:38.172Z,43.71
2023-03-06T04:21:39.549Z,44.16
2023-03-06T04:25:41.193Z,43.88
2023-03-06T04:29:42.568Z,44.04
2023-03-06T04:33:43.848Z,43.61
2023-03-06T04:37:45.194Z,43.72
2023-03-06T04:41:46.509Z,44.13
2023-03-06T04:45:48.081Z,44.43
2023-03-06T04:49:49.405Z,43.74
2023-03-06T04:53:50.722Z,44.74
2023-03-06T04:57:52.148Z,43.62
2023-03-06T05:01:54.250Z,44.27
2023-03-06T05:05:55.700Z,43.46
2023-03-06T05:09:56.986Z,43.62
2023-03-06T05:13:58.331Z,43.48
2023-03-06T05:17:59.718Z,44.58
2023-03-06T05:22:01.116Z,43.68
2023-03-06T05:26:09.353Z,43.65
2023-03-06T05:30:12.753Z,43.44
2023-03-06T05:34:14.874Z,43.57
2023-03-06T05:38:16.766Z,43.72
2023-03-06T05:42:18.470Z,43.79
2023-03-06T05:46:19.890Z,43.54
2023-03-06T05:50:21.335Z,43.22
2023-03-06T05:54:24.361Z,43.02
2023-03-06T05:58:26.336Z,42.89
2023-03-06T06:02:27.636Z,43.16
2023-03-06T06:06:29.030Z,43.35
2023-03-06T06:10:30.378Z,43.51
2023-03-06T06:14:34.134Z,42.65
2023-03-06T06:18:35.450Z,42.61
2023-03-06T06:22:40.526Z,43.29
2023-03-06T06:26:42.475Z,43.19
2023-03-06T06:30:44.031Z,42.73
2023-03-06T06:34:45.359Z,42.90
2023-03-06T06:38:46.998Z,42.72
2023-03-06T06:42:48.373Z,42.93
2023-03-06T06:47:21.264Z,42.37
2023-03-06T06:51:11.574Z,41.92
2023-03-06T06:55:13.411Z,42.33
2023-03-06T06:59:16.945Z,42.88
2023-03-06T07:03:18.746Z,42.97
2023-03-06T07:07:20.052Z,42.26
2023-03-06T07:11:22.155Z,42.01
2023-03-06T07:15:26.727Z,42.44
2023-03-06T07:19:28.149Z,41.66
2023-03-06T07:23:29.617Z,42.04
2023-03-06T07:27:30.966Z,42.55
2023-03-06T07:31:32.386Z,42.81
2023-03-06T07:35:33.941Z,44.08
2023-03-06T07:39:35.457Z,41.48
2023-03-06T07:43:36.919Z,41.27
2023-03-06T07:47:38.813Z,41.31
2023-03-06T07:51:40.270Z,41.86
2023-03-06T07:55:41.595Z,40.86
2023-03-06T07:59:42.908Z,40.38
2023-03-06T08:03:44.664Z,40.93
2023-03-06T08:07:46.114Z,40.70
2023-03-06T08:11:47.565Z,40.86
2023-03-06T08:15:49.263Z,41.29
2023-03-06T08:19:50.613Z,40.63
2023-03-06T08:23:52.481Z,39.87
2023-03-06T08:27:54.077Z,39.85
2023-03-06T08:31:55.454Z,39.30
2023-03-06T08:35:56.792Z,38.86
2023-03-06T08:39:58.637Z,39.20
2023-03-06T08:44:00.109Z,39.91
2023-03-06T08:48:01.467Z,39.01
2023-03-06T08:52:02.741Z,39.45
2023-03-06T08:56:04.527Z,39.25
2023-03-06T09:00:08.868Z,39.12
2023-03-06T09:04:11.629Z,38.46
2023-03-06T09:08:12.969Z,38.27
2023-03-06T09:12:14.356Z,37.95
2023-03-06T09:16:16.130Z,38.97
2023-03-06T09:20:18.510Z,38.82
2023-03-06T09:24:19.878Z,38.10
2023-03-06T09:28:22.139Z,36.94
2023-03-06T09:32:24.232Z,36.65
2023-03-06T09:36:25.569Z,35.82
2023-03-06T09:40:55.079Z,36.45
2023-03-06T09:44:59.961Z,35.75
2023-03-06T09:49:23.180Z,35.97
2023-03-06T09:53:36.420Z,36.09
2023-03-06T09:58:02.697Z,36.38
2023-03-06T10:02:15.950Z,37.26
2023-03-06T10:06:29.724Z,37.30
2023-03-06T10:10:46.725Z,38.23
2023-03-06T10:15:16.101Z,37.43
2023-03-06T10:19:19.950Z,35.86
2023-03-06T10:23:29.166Z,35.14
2023-03-06T10:27:46.190Z,34.52
2023-03-06T10:31:59.482Z,34.64
2023-03-06T10:36:00.881Z,34.98
2023-03-06T10:40:15.691Z,34.82
2023-03-06T10:44:19.263Z,34.85
2023-03-06T10:48:25.064Z,34.45
2023-03-06T10:52:30.590Z,35.26
2023-03-06T10:56:38.811Z,34.34
2023-03-06T11:00:40.191Z,34.58
2023-03-06T11:04:47.187Z,35.99
2023-03-06T11:08:48.537Z,36.61
2023-03-06T11:13:19.095Z,36.47
2023-03-06T11:17:28.809Z,37.13
2023-03-06T11:21:33.300Z,36.97
2023-03-06T11:25:40.657Z,37.69
2023-03-06T11:29:49.314Z,38.80
2023-03-06T11:34:12.052Z,38.28
2023-03-06T11:38:27.186Z,38.40
2023-03-06T11:42:34.271Z,38.45
2023-03-06T11:46:41.713Z,37.96
2023-03-06T11:50:49.139Z,37.42
2023-03-06T11:54:55.742Z,37.60
2023-03-06T11:59:41.591Z,38.26
2023-03-06T12:03:48.945Z,39.75
2023-03-06T12:08:23.113Z,39.52
2023-03-06T12:12:41.188Z,39.21
2023-03-06T12:17:03.918Z,38.64
2023-03-06T12:21:15.317Z,38.32
2023-03-06T12:25:39.429Z,37.44
2023-03-06T12:29:52.922Z,37.78
2023-03-06T12:34:04.414Z,37.59
2023-03-06T12:38:44.854Z,36.67
2023-03-06T12:43:00.448Z,36.80
2023-03-06T12:47:04.877Z,37.84
2023-03-06T12:51:11.010Z,36.99
2023-03-06T12:55:16.687Z,36.96
2023-03-06T12:59:44.133Z,37.72
2023-03-06T13:04:18.745Z,36.89
2023-03-06T13:08:57.046Z,35.92
2023-03-06T13:13:01.106Z,35.97
2023-03-06T13:17:20.685Z,36.37
2023-03-06T13:21:41.037Z,35.81
2023-03-06T13:25:48.596Z,35.62
2023-03-06T13:29:52.298Z,35.08
2023-03-06T13:33:57.283Z,35.19
2023-03-06T13:37:59.778Z,35.27
2023-03-06T13:42:01.324Z,35.44
2023-03-06T13:46:24.666Z,34.46
2023-03-06T13:50:33.060Z,34.93
2023-03-06T13:54:55.477Z,36.38
2023-03-06T13:59:18.141Z,35.96
2023-03-06T14:03:40.293Z,37.36
2023-03-06T14:07:47.037Z,37.38
2023-03-06T14:12:00.604Z,36.50
2023-03-06T14:16:10.012Z,36.21
2023-03-06T14:20:17.858Z,36.75
2023-03-06T14:24:27.849Z,35.70
2023-03-06T14:28:31.068Z,36.99
2023-03-06T14:32:32.595Z,36.00
2023-03-06T14:37:01.988Z,35.79
2023-03-06T14:41:05.286Z,36.61
2023-03-06T14:45:16.551Z,36.08
2023-03-06T14:49:19.906Z,36.46
2023-03-06T14:53:25.205Z,35.81
2023-03-06T14:57:26.810Z,36.78
2023-03-06T15:01:36.178Z,36.80
2023-03-06T15:05:38.254Z,35.08
2023-03-06T15:09:45.527Z,34.74
2023-03-06T15:14:00.973Z,35.32
2023-03-06T15:18:02.692Z,35.25
2023-03-06T15:22:04.045Z,34.82
2023-03-06T15:26:22.563Z,35.06
2023-03-06T15:30:37.047Z,34.56
2023-03-06T15:34:38.604Z,34.76
2023-03-06T15:38:45.384Z,35.16
2023-03-06T15:42:46.820Z,35.77
2023-03-06T15:46:49.981Z,35.44
2023-03-06T15:50:53.237Z,35.05
2023-03-06T15:54:54.558Z,34.83
2023-03-06T15:58:57.894Z,35.52
2023-03-06T16:02:59.307Z,35.24
2023-03-06T16:07:00.612Z,35.34
2023-03-06T16:11:01.955Z,35.61
2023-03-06T16:15:04.150Z,35.36
2023-03-06T16:19:23.796Z,35.74
2023-03-06T16:23:26.841Z,35.43
2023-03-06T16:27:28.908Z,36.42
2023-03-06T16:31:30.266Z,36.25
2023-03-06T16:35:31.905Z,36.63
2023-03-06T16:39:33.433Z,36.13
2023-03-06T16:43:34.886Z,36.38
2023-03-06T16:47:36.236Z,36.25
2023-03-06T16:51:39.637Z,36.09
2023-03-06T16:55:41.173Z,36.13
2023-03-06T16:59:42.545Z,36.25
2023-03-06T17:03:44.499Z,36.12
2023-03-06T17:07:46.311Z,35.96
2023-03-06T17:11:47.810Z,35.80
2023-03-06T17:15:56.414Z,36.05
2023-03-06T17:19:58.103Z,36.30
2023-03-06T17:24:01.596Z,36.21
2023-03-06T17:28:03.069Z,35.95
2023-03-06T17:32:04.530Z,36.24
2023-03-06T17:36:06.328Z,36.26
2023-03-06T17:40:09.615Z,36.19
2023-03-06T17:44:12.017Z,37.85
2023-03-06T17:48:14.083Z,37.51
2023-03-06T17:52:15.411Z,38.16
2023-03-06T17:56:16.725Z,37.47
2023-03-06T18:00:18.757Z,37.52
2023-03-06T18:04:20.030Z,37.39
2023-03-06T18:08:21.317Z,36.56
2023-03-06T18:12:22.711Z,36.28
2023-03-06T18:16:25.900Z,36.17
2023-03-06T18:20:27.484Z,35.96
2023-03-06T18:24:28.846Z,34.87
2023-03-06T18:28:30.707Z,34.78
2023-03-06T18:32:32.179Z,34.51
2023-03-06T18:36:34.350Z,34.47
2023-03-06T18:40:35.683Z,33.89
2023-03-06T18:44:37.040Z,33.80
2023-03-06T18:48:38.389Z,33.86
2023-03-06T18:52:39.701Z,33.78
2023-03-06T18:56:43.987Z,33.34
2023-03-06T19:00:45.775Z,33.44
2023-03-06T19:04:47.221Z,33.66
2023-03-06T19:08:48.576Z,33.77
2023-03-06T19:12:49.919Z,33.30
2023-03-06T19:16:51.275Z,32.58
2023-03-06T19:20:53.216Z,32.81
2023-03-06T19:24:54.559Z,33.47
2023-03-06T19:28:55.996Z,33.52
2023-03-06T19:32:57.429Z,33.58
2023-03-06T19:36:58.827Z,33.85
2023-03-06T19:41:03.363Z,33.68
2023-03-06T19:45:05.935Z,33.10
2023-03-06T19:49:11.943Z,33.20
2023-03-06T19:53:13.694Z,34.35
2023-03-06T19:57:15.134Z,33.84
2023-03-06T20:01:19.082Z,33.61
2023-03-06T20:05:20.436Z,32.74
2023-03-06T20:09:21.816Z,32.35
2023-03-06T20:13:23.242Z,32.91
2023-03-06T20:17:24.594Z,32.27
2023-03-06T20:21:30.765Z,33.10
2023-03-06T20:25:35.264Z,32.87
2023-03-06T20:29:36.570Z,33.44
2023-03-06T20:33:37.977Z,32.90
2023-03-06T20:37:41.056Z,32.23
2023-03-06T20:41:43.433Z,31.92
2023-03-06T20:45:56.246Z,33.24
2023-03-06T20:49:57.615Z,34.40
2023-03-06T20:54:00.991Z,36.08
2023-03-06T20:58:02.331Z,35.81
2023-03-06T21:02:03.908Z,36.31
2023-03-06T21:06:05.441Z,37.01
2023-03-06T21:10:07.647Z,37.43
2023-03-06T21:14:09.057Z,36.95
2023-03-06T21:18:11.363Z,36.98
2023-03-06T21:22:13.607Z,36.52
2023-03-06T21:26:26.983Z,37.95
2023-03-06T21:30:29.426Z,36.39
2023-03-06T21:34:30.734Z,36.07
2023-03-06T21:38:32.987Z,35.49
2023-03-06T21:42:37.371Z,36.34
2023-03-06T21:46:38.796Z,36.43
2023-03-06T21:50:40.962Z,36.29
2023-03-06T21:54:43.322Z,35.21
2023-03-06T21:58:45.577Z,36.79
2023-03-06T22:02:47.209Z,35.92
2023-03-06T22:06:48.526Z,36.93
2023-03-06T22:10:49.857Z,36.41
2023-03-06T22:14:51.669Z,35.79
2023-03-06T22:18:53.129Z,36.24
2023-03-06T22:22:54.525Z,36.07
2023-03-06T22:26:55.843Z,36.92
2023-03-06T22:31:05.518Z,36.15
2023-03-06T22:35:07.165Z,36.28
2023-03-06T22:39:11.986Z,36.65
2023-03-06T22:43:13.276Z,36.52
2023-03-06T22:47:14.660Z,36.40
2023-03-06T22:51:20.538Z,36.53
2023-03-06T22:55:21.930Z,36.76
2023-03-06T22:59:23.249Z,36.86
2023-03-06T23:03:24.585Z,37.63
2023-03-06T23:07:25.912Z,38.08
2023-03-06T23:11:28.830Z,38.63
2023-03-06T23:15:30.256Z,39.35
2023-03-06T23:19:31.606Z,39.93
2023-03-06T23:23:32.983Z,40.32
2023-03-06T23:27:35.986Z,40.32
2023-03-06T23:31:37.357Z,41.32
2023-03-06T23:35:39.524Z,42.38
2023-03-06T23:39:40.948Z,43.15
2023-03-06T23:43:42.694Z,42.25
2023-03-06T23:47:43.988Z,41.88
2023-03-06T23:51:45.546Z,42.59
2023-03-06T23:55:49.049Z,42.85
2023-03-06T23:59:50.426Z,42.85
